CheckWX is a tool to help pilots better visualize weather data.  It is not intended as a substitute for an official pre-flight weather briefing.

20:09:19 UTC

KCLI METAR
Clintonville Municipal Airport
Clintonville, Wisconsin, USA
Current

34 mins ago

KCLI 121935Z AUTO 36008KT 10SM BKN060 24/11 A2992 RMK AO2 T02420114
Observed
Jul-12 @ 19:35 UTC
Wind
  • 360° at 8 KTS
Visibility
10 SM
Flight Rules
VFR
Cloud Levels
  • Broken at 6,000' AGL
Temperature
24°C / 75°F
Dewpoint
11°C / 52°F
Humidity
44%
Altimeter
29.92" Hg
Pressure
1013.22 hPa
Previous

54 mins ago

KCLI 121915Z AUTO 01006KT 10SM SCT050 26/12 A2991 RMK AO2 T02560115
Observed
Jul-12 @ 19:15 UTC
Wind
  • 010° at 6 KTS
Visibility
10 SM
Flight Rules
VFR
Cloud Levels
  • Scattered at 5,000' AGL
Temperature
26°C / 79°F
Dewpoint
12°C / 54°F
Humidity
42%
Altimeter
29.91" Hg
Pressure
1012.92 hPa
Previous

1 hour ago

KCLI 121855Z AUTO 34007KT 10SM SCT055 25/11 A2991 RMK AO2 T02480105
Observed
Jul-12 @ 18:55 UTC
Wind
  • 340° at 7 KTS
Visibility
10 SM
Flight Rules
VFR
Cloud Levels
  • Scattered at 5,500' AGL
Temperature
25°C / 77°F
Dewpoint
10°C / 50°F
Humidity
39%
Altimeter
29.91" Hg
Pressure
1012.92 hPa